sensor_id;sensor_type;location;lat;lon;timestamp;pressure;altitude;pressure_sealevel;temperature;humidity
6853;BME280;3465;42.144;24.722;2023-03-03T00:01:04;144289.25;;;5.47;100.00
6853;BME280;3465;42.144;24.722;2023-03-03T00:03:30;144279.25;;;5.43;100.00
6853;BME280;3465;42.144;24.722;2023-03-03T00:05:56;144280.53;;;5.43;100.00
6853;BME280;3465;42.144;24.722;2023-03-03T00:08:21;144261.84;;;5.36;100.00
6853;BME280;3465;42.144;24.722;2023-03-03T00:10:48;144255.59;;;5.33;100.00
6853;BME280;3465;42.144;24.722;2023-03-03T00:13:20;144254.38;;;5.33;100.00
6853;BME280;3465;42.144;24.722;2023-03-03T00:15:46;144276.78;;;5.42;100.00
6853;BME280;3465;42.144;24.722;2023-03-03T00:18:33;144294.25;;;5.49;100.00
6853;BME280;3465;42.144;24.722;2023-03-03T00:21:01;144289.25;;;5.47;100.00
6853;BME280;3465;42.144;24.722;2023-03-03T00:23:35;144289.25;;;5.47;100.00
6853;BME280;3465;42.144;24.722;2023-03-03T00:26:14;144276.78;;;5.42;100.00
6853;BME280;3465;42.144;24.722;2023-03-03T00:28:45;144291.72;;;5.48;100.00
6853;BME280;3465;42.144;24.722;2023-03-03T00:31:17;144208.22;;;5.14;100.00
6853;BME280;3465;42.144;24.722;2023-03-03T00:33:52;144276.78;;;5.42;100.00
6853;BME280;3465;42.144;24.722;2023-03-03T00:36:37;144269.31;;;5.39;100.00
6853;BME280;3465;42.144;24.722;2023-03-03T00:39:29;144264.31;;;5.37;100.00
6853;BME280;3465;42.144;24.722;2023-03-03T00:41:56;144244.38;;;5.29;100.00
6853;BME280;3465;42.144;24.722;2023-03-03T00:47:31;144259.31;;;5.35;100.00
6853;BME280;3465;42.144;24.722;2023-03-03T00:52:34;144269.31;;;5.39;100.00
6853;BME280;3465;42.144;24.722;2023-03-03T00:55:00;144246.88;;;5.30;100.00
6853;BME280;3465;42.144;24.722;2023-03-03T00:57:25;144281.78;;;5.44;100.00
6853;BME280;3465;42.144;24.722;2023-03-03T00:59:51;144245.63;;;5.29;100.00
6853;BME280;3465;42.144;24.722;2023-03-03T01:02:16;144264.31;;;5.37;100.00
6853;BME280;3465;42.144;24.722;2023-03-03T01:04:47;144291.72;;;5.48;100.00
6853;BME280;3465;42.144;24.722;2023-03-03T01:07:13;144278.03;;;5.42;100.00
6853;BME280;3465;42.144;24.722;2023-03-03T01:09:39;144280.53;;;5.43;100.00
6853;BME280;3465;42.144;24.722;2023-03-03T01:12:05;144289.25;;;5.47;100.00
6853;BME280;3465;42.144;24.722;2023-03-03T01:14:30;144285.53;;;5.45;100.00
6853;BME280;3465;42.144;24.722;2023-03-03T01:16:56;144304.19;;;5.53;100.00
6853;BME280;3465;42.144;24.722;2023-03-03T01:19:21;144288.00;;;5.46;100.00
6853;BME280;3465;42.144;24.722;2023-03-03T01:21:47;144253.09;;;5.32;100.00
6853;BME280;3465;42.144;24.722;2023-03-03T01:24:12;144244.38;;;5.29;100.00
6853;BME280;3465;42.144;24.722;2023-03-03T01:26:37;144233.16;;;5.24;100.00
6853;BME280;3465;42.144;24.722;2023-03-03T01:29:03;144239.38;;;5.27;100.00
6853;BME280;3465;42.144;24.722;2023-03-03T01:31:28;144128.50;;;4.82;100.00
6853;BME280;3465;42.144;24.722;2023-03-03T01:33:54;144264.31;;;5.37;100.00
6853;BME280;3465;42.144;24.722;2023-03-03T01:36:24;144254.38;;;5.33;100.00
6853;BME280;3465;42.144;24.722;2023-03-03T01:38:49;144240.63;;;5.27;100.00
6853;BME280;3465;42.144;24.722;2023-03-03T01:41:15;144265.56;;;5.37;100.00
6853;BME280;3465;42.144;24.722;2023-03-03T01:43:48;144264.31;;;5.37;100.00
6853;BME280;3465;42.144;24.722;2023-03-03T01:49:09;144281.78;;;5.44;100.00
6853;BME280;3465;42.144;24.722;2023-03-03T01:51:42;144246.88;;;5.30;100.00
6853;BME280;3465;42.144;24.722;2023-03-03T01:54:17;144298.00;;;5.50;100.00
6853;BME280;3465;42.144;24.722;2023-03-03T01:56:44;144293.00;;;5.48;100.00
6853;BME280;3465;42.144;24.722;2023-03-03T01:59:13;144306.72;;;5.54;100.00
6853;BME280;3465;42.144;24.722;2023-03-03T02:01:40;144315.41;;;5.57;100.00
6853;BME280;3465;42.144;24.722;2023-03-03T02:04:07;144322.88;;;5.60;100.00
6853;BME280;3465;42.144;24.722;2023-03-03T02:06:37;144314.19;;;5.57;100.00
6853;BME280;3465;42.144;24.722;2023-03-03T02:09:12;144326.66;;;5.62;100.00
6853;BME280;3465;42.144;24.722;2023-03-03T02:11:41;144317.94;;;5.58;100.00
6853;BME280;3465;42.144;24.722;2023-03-03T02:14:10;144298.00;;;5.50;100.00
6853;BME280;3465;42.144;24.722;2023-03-03T02:16:35;144298.00;;;5.50;100.00
6853;BME280;3465;42.144;24.722;2023-03-03T02:19:01;144319.16;;;5.59;100.00
6853;BME280;3465;42.144;24.722;2023-03-03T02:21:26;144335.34;;;5.65;100.00
6853;BME280;3465;42.144;24.722;2023-03-03T02:24:02;144336.63;;;5.66;100.00
6853;BME280;3465;42.144;24.722;2023-03-03T02:26:35;144332.88;;;5.64;100.00
6853;BME280;3465;42.144;24.722;2023-03-03T02:29:01;144324.16;;;5.61;100.00
6853;BME280;3465;42.144;24.722;2023-03-03T02:31:29;144296.72;;;5.50;100.00
6853;BME280;3465;42.144;24.722;2023-03-03T02:33:56;144307.94;;;5.54;100.00
6853;BME280;3465;42.144;24.722;2023-03-03T02:36:28;144299.19;;;5.51;100.00
6853;BME280;3465;42.144;24.722;2023-03-03T02:44:20;144311.69;;;5.56;100.00
6853;BME280;3465;42.144;24.722;2023-03-03T02:46:48;144280.53;;;5.43;100.00
6853;BME280;3465;42.144;24.722;2023-03-03T02:49:18;144314.19;;;5.57;100.00
6853;BME280;3465;42.144;24.722;2023-03-03T02:51:43;144322.88;;;5.60;100.00
6853;BME280;3465;42.144;24.722;2023-03-03T02:54:10;144324.16;;;5.61;100.00
6853;BME280;3465;42.144;24.722;2023-03-03T02:56:36;144319.16;;;5.59;100.00
6853;BME280;3465;42.144;24.722;2023-03-03T02:59:03;144314.19;;;5.57;100.00
6853;BME280;3465;42.144;24.722;2023-03-03T03:01:31;144326.66;;;5.62;100.00
6853;BME280;3465;42.144;24.722;2023-03-03T03:04:09;144326.66;;;5.62;100.00
6853;BME280;3465;42.144;24.722;2023-03-03T03:06:35;144365.31;;;5.77;100.00
6853;BME280;3465;42.144;24.722;2023-03-03T03:09:01;144355.31;;;5.73;100.00
6853;BME280;3465;42.144;24.722;2023-03-03T03:11:27;144335.34;;;5.65;100.00
6853;BME280;3465;42.144;24.722;2023-03-03T03:13:53;144271.78;;;5.40;100.00
6853;BME280;3465;42.144;24.722;2023-03-03T03:16:18;144327.88;;;5.62;100.00
6853;BME280;3465;42.144;24.722;2023-03-03T03:18:44;144350.34;;;5.71;100.00
6853;BME280;3465;42.144;24.722;2023-03-03T03:21:11;144349.09;;;5.71;100.00
6853;BME280;3465;42.144;24.722;2023-03-03T03:23:38;144331.63;;;5.64;100.00
6853;BME280;3465;42.144;24.722;2023-03-03T03:26:04;144346.63;;;5.70;100.00
6853;BME280;3465;42.144;24.722;2023-03-03T03:28:30;144349.09;;;5.71;100.00
6853;BME280;3465;42.144;24.722;2023-03-03T03:30:55;144344.09;;;5.69;100.00
6853;BME280;3465;42.144;24.722;2023-03-03T03:33:21;144344.09;;;5.69;100.00
6853;BME280;3465;42.144;24.722;2023-03-03T03:35:47;144342.84;;;5.68;100.00
6853;BME280;3465;42.144;24.722;2023-03-03T03:38:13;144344.09;;;5.69;100.00
6853;BME280;3465;42.144;24.722;2023-03-03T03:40:39;144360.31;;;5.75;100.00
6853;BME280;3465;42.144;24.722;2023-03-03T03:43:05;144374.03;;;5.81;100.00
6853;BME280;3465;42.144;24.722;2023-03-03T03:45:30;144319.16;;;5.59;100.00
6853;BME280;3465;42.144;24.722;2023-03-03T03:47:56;144349.09;;;5.71;100.00
6853;BME280;3465;42.144;24.722;2023-03-03T03:50:21;144350.34;;;5.71;100.00
6853;BME280;3465;42.144;24.722;2023-03-03T03:52:47;144331.63;;;5.64;100.00
6853;BME280;3465;42.144;24.722;2023-03-03T03:55:12;144326.66;;;5.62;100.00
6853;BME280;3465;42.144;24.722;2023-03-03T03:57:39;144335.34;;;5.65;100.00
6853;BME280;3465;42.144;24.722;2023-03-03T04:00:05;144316.66;;;5.58;100.00
6853;BME280;3465;42.144;24.722;2023-03-03T04:02:31;144325.41;;;5.61;100.00
6853;BME280;3465;42.144;24.722;2023-03-03T04:04:56;144315.41;;;5.57;100.00
6853;BME280;3465;42.144;24.722;2023-03-03T04:07:21;144304.19;;;5.53;100.00
6853;BME280;3465;42.144;24.722;2023-03-03T04:09:47;144326.66;;;5.62;100.00
6853;BME280;3465;42.144;24.722;2023-03-03T04:12:12;144316.66;;;5.58;100.00
6853;BME280;3465;42.144;24.722;2023-03-03T04:14:38;144319.16;;;5.59;100.00
6853;BME280;3465;42.144;24.722;2023-03-03T04:17:03;144306.72;;;5.54;100.00
6853;BME280;3465;42.144;24.722;2023-03-03T04:19:28;144281.78;;;5.44;100.00
6853;BME280;3465;42.144;24.722;2023-03-03T04:21:54;144300.47;;;5.51;100.00
6853;BME280;3465;42.144;24.722;2023-03-03T04:24:19;144299.19;;;5.51;100.00
6853;BME280;3465;42.144;24.722;2023-03-03T04:26:45;144299.19;;;5.51;100.00
6853;BME280;3465;42.144;24.722;2023-03-03T04:29:10;144306.72;;;5.54;100.00
6853;BME280;3465;42.144;24.722;2023-03-03T04:31:35;144295.47;;;5.49;100.00
6853;BME280;3465;42.144;24.722;2023-03-03T04:34:01;144304.19;;;5.53;100.00
6853;BME280;3465;42.144;24.722;2023-03-03T04:36:26;144298.00;;;5.50;100.00
6853;BME280;3465;42.144;24.722;2023-03-03T04:38:51;144317.94;;;5.58;100.00
6853;BME280;3465;42.144;24.722;2023-03-03T04:41:17;144329.16;;;5.63;100.00
6853;BME280;3465;42.144;24.722;2023-03-03T04:43:42;144339.09;;;5.67;100.00
6853;BME280;3465;42.144;24.722;2023-03-03T04:46:08;144327.88;;;5.62;100.00
6853;BME280;3465;42.144;24.722;2023-03-03T04:48:33;144321.66;;;5.60;100.00
6853;BME280;3465;42.144;24.722;2023-03-03T04:50:59;144281.78;;;5.44;100.00
6853;BME280;3465;42.144;24.722;2023-03-03T04:53:24;144310.47;;;5.55;100.00
6853;BME280;3465;42.144;24.722;2023-03-03T04:55:53;144316.66;;;5.58;100.00
6853;BME280;3465;42.144;24.722;2023-03-03T04:58:19;144296.72;;;5.50;100.00
6853;BME280;3465;42.144;24.722;2023-03-03T05:00:46;144320.41;;;5.59;100.00
6853;BME280;3465;42.144;24.722;2023-03-03T05:03:11;144301.72;;;5.52;100.00
6853;BME280;3465;42.144;24.722;2023-03-03T05:05:37;144311.69;;;5.56;100.00
6853;BME280;3465;42.144;24.722;2023-03-03T05:08:03;144317.94;;;5.58;100.00
6853;BME280;3465;42.144;24.722;2023-03-03T05:10:28;144295.47;;;5.49;100.00
6853;BME280;3465;42.144;24.722;2023-03-03T05:12:54;144326.66;;;5.62;100.00
6853;BME280;3465;42.144;24.722;2023-03-03T05:15:20;144316.66;;;5.58;100.00
6853;BME280;3465;42.144;24.722;2023-03-03T05:17:45;144324.16;;;5.61;100.00
6853;BME280;3465;42.144;24.722;2023-03-03T05:20:11;144334.13;;;5.65;100.00
6853;BME280;3465;42.144;24.722;2023-03-03T05:22:37;144326.66;;;5.62;100.00
6853;BME280;3465;42.144;24.722;2023-03-03T05:25:03;144304.19;;;5.53;100.00
6853;BME280;3465;42.144;24.722;2023-03-03T05:27:29;144300.47;;;5.51;100.00
6853;BME280;3465;42.144;24.722;2023-03-03T05:29:54;144320.41;;;5.59;100.00
6853;BME280;3465;42.144;24.722;2023-03-03T05:32:20;144319.16;;;5.59;100.00
6853;BME280;3465;42.144;24.722;2023-03-03T05:34:45;144335.34;;;5.65;100.00
6853;BME280;3465;42.144;24.722;2023-03-03T05:37:10;144337.88;;;5.66;100.00
6853;BME280;3465;42.144;24.722;2023-03-03T05:39:36;144341.63;;;5.68;100.00
6853;BME280;3465;42.144;24.722;2023-03-03T05:42:01;144354.09;;;5.73;100.00
6853;BME280;3465;42.144;24.722;2023-03-03T05:44:27;144365.31;;;5.77;100.00
6853;BME280;3465;42.144;24.722;2023-03-03T05:46:52;144371.53;;;5.80;100.00
6853;BME280;3465;42.144;24.722;2023-03-03T05:49:18;144351.56;;;5.72;100.00
6853;BME280;3465;42.144;24.722;2023-03-03T05:51:43;144347.84;;;5.70;100.00
6853;BME280;3465;42.144;24.722;2023-03-03T05:54:08;144369.03;;;5.79;100.00
6853;BME280;3465;42.144;24.722;2023-03-03T05:56:34;144371.53;;;5.80;100.00
6853;BME280;3465;42.144;24.722;2023-03-03T05:58:59;144370.31;;;5.79;100.00
6853;BME280;3465;42.144;24.722;2023-03-03T06:01:25;144366.56;;;5.78;100.00
6853;BME280;3465;42.144;24.722;2023-03-03T06:03:51;144379.03;;;5.83;100.00
6853;BME280;3465;42.144;24.722;2023-03-03T06:06:16;144360.31;;;5.75;100.00
6853;BME280;3465;42.144;24.722;2023-03-03T06:08:43;144395.25;;;5.90;100.00
6853;BME280;3465;42.144;24.722;2023-03-03T06:11:08;144401.50;;;5.92;100.00
6853;BME280;3465;42.144;24.722;2023-03-03T06:13:34;144392.78;;;5.89;100.00
6853;BME280;3465;42.144;24.722;2023-03-03T06:16:00;144443.91;;;6.09;100.00
6853;BME280;3465;42.144;24.722;2023-03-03T06:18:25;144386.56;;;5.86;100.00
6853;BME280;3465;42.144;24.722;2023-03-03T06:20:52;144395.25;;;5.90;100.00
6853;BME280;3465;42.144;24.722;2023-03-03T06:23:18;144409.00;;;5.95;100.00
6853;BME280;3465;42.144;24.722;2023-03-03T06:25:44;144432.69;;;6.05;100.00
6853;BME280;3465;42.144;24.722;2023-03-03T06:28:10;144425.22;;;6.02;100.00
6853;BME280;3465;42.144;24.722;2023-03-03T06:30:35;144390.31;;;5.88;100.00
6853;BME280;3465;42.144;24.722;2023-03-03T06:33:01;144410.25;;;5.96;100.00
6853;BME280;3465;42.144;24.722;2023-03-03T06:35:26;144442.63;;;6.09;100.00
6853;BME280;3465;42.144;24.722;2023-03-03T06:37:51;144468.84;;;6.19;100.00
6853;BME280;3465;42.144;24.722;2023-03-03T06:40:17;144482.56;;;6.25;100.00
6853;BME280;3465;42.144;24.722;2023-03-03T06:42:42;144470.13;;;6.20;100.00
6853;BME280;3465;42.144;24.722;2023-03-03T06:45:08;144471.34;;;6.20;100.00
6853;BME280;3465;42.144;24.722;2023-03-03T06:47:33;144473.84;;;6.21;100.00
6853;BME280;3465;42.144;24.722;2023-03-03T06:49:59;144445.16;;;6.10;100.00
6853;BME280;3465;42.144;24.722;2023-03-03T06:52:26;144497.56;;;6.31;100.00
6853;BME280;3465;42.144;24.722;2023-03-03T06:54:57;144528.75;;;6.43;100.00
6853;BME280;3465;42.144;24.722;2023-03-03T06:57:28;144542.44;;;6.49;100.00
6853;BME280;3465;42.144;24.722;2023-03-03T06:59:57;144522.47;;;6.41;100.00
6853;BME280;3465;42.144;24.722;2023-03-03T07:02:24;144522.47;;;6.41;100.00
6853;BME280;3465;42.144;24.722;2023-03-03T07:04:52;144478.81;;;6.23;100.00
6853;BME280;3465;42.144;24.722;2023-03-03T07:07:22;144507.50;;;6.35;100.00
6853;BME280;3465;42.144;24.722;2023-03-03T07:09:51;144513.78;;;6.37;100.00
6853;BME280;3465;42.144;24.722;2023-03-03T07:12:19;144517.53;;;6.39;100.00
6853;BME280;3465;42.144;24.722;2023-03-03T07:14:51;144559.91;;;6.56;100.00
6853;BME280;3465;42.144;24.722;2023-03-03T07:17:23;144554.91;;;6.54;100.00
6853;BME280;3465;42.144;24.722;2023-03-03T07:19:49;144571.16;;;6.60;100.00
6853;BME280;3465;42.144;24.722;2023-03-03T07:24:41;144572.41;;;6.61;100.00
6853;BME280;3465;42.144;24.722;2023-03-03T07:27:29;144623.56;;;6.81;100.00
6853;BME280;3465;42.144;24.722;2023-03-03T07:30:20;144612.34;;;6.77;100.00
6853;BME280;3465;42.144;24.722;2023-03-03T07:32:48;144626.09;;;6.82;100.00
6853;BME280;3465;42.144;24.722;2023-03-03T07:35:45;144619.81;;;6.80;100.00
6853;BME280;3465;42.144;24.722;2023-03-03T07:38:30;144607.34;;;6.75;100.00
6853;BME280;3465;42.144;24.722;2023-03-03T07:41:00;144613.59;;;6.77;100.00
6853;BME280;3465;42.144;24.722;2023-03-03T07:48:40;144526.25;;;6.42;100.00
6853;BME280;3465;42.144;24.722;2023-03-03T07:51:18;144553.69;;;6.53;100.00
6853;BME280;3465;42.144;24.722;2023-03-03T07:53:44;144571.16;;;6.60;100.00
6853;BME280;3465;42.144;24.722;2023-03-03T07:56:18;144591.09;;;6.68;100.00
6853;BME280;3465;42.144;24.722;2023-03-03T07:58:46;144594.84;;;6.70;100.00
6853;BME280;3465;42.144;24.722;2023-03-03T08:01:43;144552.44;;;6.53;100.00
6853;BME280;3465;42.144;24.722;2023-03-03T08:04:46;144515.00;;;6.38;100.00
6853;BME280;3465;42.144;24.722;2023-03-03T08:07:18;144538.69;;;6.47;100.00
6853;BME280;3465;42.144;24.722;2023-03-03T08:09:47;144553.69;;;6.53;100.00
6853;BME280;3465;42.144;24.722;2023-03-03T08:12:50;144566.19;;;6.58;100.00
6853;BME280;3465;42.144;24.722;2023-03-03T08:17:41;144571.16;;;6.60;100.00
6853;BME280;3465;42.144;24.722;2023-03-03T08:20:43;144598.59;;;6.71;100.00
6853;BME280;3465;42.144;24.722;2023-03-03T08:23:09;144601.13;;;6.72;100.00
6853;BME280;3465;42.144;24.722;2023-03-03T08:25:35;144609.88;;;6.76;100.00
6853;BME280;3465;42.144;24.722;2023-03-03T08:28:01;144619.81;;;6.80;100.00
6853;BME280;3465;42.144;24.722;2023-03-03T08:30:26;144619.81;;;6.80;100.00
6853;BME280;3465;42.144;24.722;2023-03-03T08:32:51;144613.59;;;6.77;100.00
6853;BME280;3465;42.144;24.722;2023-03-03T08:35:17;144619.81;;;6.80;100.00
6853;BME280;3465;42.144;24.722;2023-03-03T08:37:42;144643.53;;;6.89;100.00
6853;BME280;3465;42.144;24.722;2023-03-03T08:40:08;144668.50;;;6.99;100.00
6853;BME280;3465;42.144;24.722;2023-03-03T08:42:34;144656.03;;;6.94;100.00
6853;BME280;3465;42.144;24.722;2023-03-03T08:44:59;144654.75;;;6.94;100.00
6853;BME280;3465;42.144;24.722;2023-03-03T08:47:25;144641.06;;;6.88;100.00
6853;BME280;3465;42.144;24.722;2023-03-03T08:49:51;144621.09;;;6.80;100.00
6853;BME280;3465;42.144;24.722;2023-03-03T08:52:18;144609.88;;;6.76;100.00
6853;BME280;3465;42.144;24.722;2023-03-03T08:54:44;144633.56;;;6.85;100.00
6853;BME280;3465;42.144;24.722;2023-03-03T08:57:09;144623.56;;;6.81;100.00
6853;BME280;3465;42.144;24.722;2023-03-03T08:59:34;144629.84;;;6.84;100.00
6853;BME280;3465;42.144;24.722;2023-03-03T09:02:04;144596.13;;;6.70;100.00
6853;BME280;3465;42.144;24.722;2023-03-03T09:04:29;144601.13;;;6.72;100.00
6853;BME280;3465;42.144;24.722;2023-03-03T09:06:55;144618.56;;;6.79;100.00
6853;BME280;3465;42.144;24.722;2023-03-03T09:09:20;144586.16;;;6.66;100.00
6853;BME280;3465;42.144;24.722;2023-03-03T09:11:46;144631.03;;;6.84;100.00
6853;BME280;3465;42.144;24.722;2023-03-03T09:14:16;144676.00;;;7.02;100.00
6853;BME280;3465;42.144;24.722;2023-03-03T09:16:49;144725.94;;;7.22;100.00
6853;BME280;3465;42.144;24.722;2023-03-03T09:19:28;144760.91;;;7.37;100.00
6853;BME280;3465;42.144;24.722;2023-03-03T09:22:19;144793.38;;;7.50;100.00
6853;BME280;3465;42.144;24.722;2023-03-03T09:24:45;144800.88;;;7.53;100.00
6853;BME280;3465;42.144;24.722;2023-03-03T09:27:17;144824.59;;;7.62;100.00
6853;BME280;3465;42.144;24.722;2023-03-03T09:29:44;144815.84;;;7.59;100.00
6853;BME280;3465;42.144;24.722;2023-03-03T09:34:46;144785.88;;;7.47;100.00
6853;BME280;3465;42.144;24.722;2023-03-03T09:37:23;144823.31;;;7.62;100.00
6853;BME280;3465;42.144;24.722;2023-03-03T09:39:53;144804.59;;;7.54;100.00
6853;BME280;3465;42.144;24.722;2023-03-03T09:42:34;144807.09;;;7.55;100.00
6853;BME280;3465;42.144;24.722;2023-03-03T09:51:43;144795.84;;;7.51;100.00
6853;BME280;3465;42.144;24.722;2023-03-03T09:56:33;144773.41;;;7.42;100.00
6853;BME280;3465;42.144;24.722;2023-03-03T10:04:32;144813.34;;;7.58;100.00
6853;BME280;3465;42.144;24.722;2023-03-03T10:09:56;144847.06;;;7.71;100.00
6853;BME280;3465;42.144;24.722;2023-03-03T10:12:32;144845.84;;;7.71;100.00
6853;BME280;3465;42.144;24.722;2023-03-03T10:18:29;144764.66;;;7.38;100.00
6853;BME280;3465;42.144;24.722;2023-03-03T10:21:11;144769.66;;;7.40;100.00
6853;BME280;3465;42.144;24.722;2023-03-03T10:38:25;144857.06;;;7.75;100.00
6853;BME280;3465;42.144;24.722;2023-03-03T10:46:29;144913.28;;;7.98;100.00
6853;BME280;3465;42.144;24.722;2023-03-03T10:49:18;144939.50;;;8.08;100.00
6853;BME280;3465;42.144;24.722;2023-03-03T11:03:41;144942.00;;;8.09;100.00
6853;BME280;3465;42.144;24.722;2023-03-03T11:06:21;144947.00;;;8.11;100.00
6853;BME280;3465;42.144;24.722;2023-03-03T11:11:30;145007.03;;;8.35;100.00
6853;BME280;3465;42.144;24.722;2023-03-03T11:14:12;145038.28;;;8.48;100.00
6853;BME280;3465;42.144;24.722;2023-03-03T11:16:43;145083.28;;;8.66;100.00
6853;BME280;3465;42.144;24.722;2023-03-03T11:19:47;145089.56;;;8.68;100.00
6853;BME280;3465;42.144;24.722;2023-03-03T11:22:12;145072.03;;;8.61;100.00
6853;BME280;3465;42.144;24.722;2023-03-03T11:27:24;145038.28;;;8.48;100.00
6853;BME280;3465;42.144;24.722;2023-03-03T11:30:14;144999.53;;;8.32;100.00
6853;BME280;3465;42.144;24.722;2023-03-03T11:35:34;144958.25;;;8.16;100.00
6853;BME280;3465;42.144;24.722;2023-03-03T11:38:23;144918.25;;;8.00;100.00
6853;BME280;3465;42.144;24.722;2023-03-03T11:40:56;144958.25;;;8.16;100.00
6853;BME280;3465;42.144;24.722;2023-03-03T11:43:30;144995.78;;;8.31;100.00
6853;BME280;3465;42.144;24.722;2023-03-03T11:46:03;145043.28;;;8.50;100.00
6853;BME280;3465;42.144;24.722;2023-03-03T11:56:55;145168.31;;;9.00;100.00
6853;BME280;3465;42.144;24.722;2023-03-03T12:02:02;145195.84;;;9.11;100.00
6853;BME280;3465;42.144;24.722;2023-03-03T12:04:36;145135.81;;;8.87;100.00
6853;BME280;3465;42.144;24.722;2023-03-03T12:17:50;145217.09;;;9.20;100.00
6853;BME280;3465;42.144;24.722;2023-03-03T12:23:09;145260.88;;;9.37;100.00
6853;BME280;3465;42.144;24.722;2023-03-03T12:26:31;145298.38;;;9.52;100.00
6853;BME280;3465;42.144;24.722;2023-03-03T12:31:57;145278.38;;;9.44;100.00
6853;BME280;3465;42.144;24.722;2023-03-03T12:37:22;145233.38;;;9.26;100.00
6853;BME280;3465;42.144;24.722;2023-03-03T12:48:00;145183.31;;;9.06;100.00
6853;BME280;3465;42.144;24.722;2023-03-03T12:55:56;145193.34;;;9.10;100.00
6853;BME280;3465;42.144;24.722;2023-03-03T13:03:31;145222.06;;;9.22;100.00
6853;BME280;3465;42.144;24.722;2023-03-03T13:06:10;145193.34;;;9.10;100.00
6853;BME280;3465;42.144;24.722;2023-03-03T13:19:56;145123.28;;;8.82;100.00
6853;BME280;3465;42.144;24.722;2023-03-03T13:25:33;145147.06;;;8.92;100.00
6853;BME280;3465;42.144;24.722;2023-03-03T13:28:09;145160.81;;;8.97;100.00
6853;BME280;3465;42.144;24.722;2023-03-03T13:30:40;145158.28;;;8.96;100.00
6853;BME280;3465;42.144;24.722;2023-03-03T13:33:19;145145.84;;;8.91;100.00
6853;BME280;3465;42.144;24.722;2023-03-03T13:36:13;145139.56;;;8.89;100.00
6853;BME280;3465;42.144;24.722;2023-03-03T13:38:46;145120.81;;;8.81;100.00
6853;BME280;3465;42.144;24.722;2023-03-03T13:41:28;145085.81;;;8.67;100.00
6853;BME280;3465;42.144;24.722;2023-03-03T13:44:01;145104.56;;;8.75;100.00
6853;BME280;3465;42.144;24.722;2023-03-03T14:03:13;145085.81;;;8.67;100.00
6853;BME280;3465;42.144;24.722;2023-03-03T14:05:35;145084.56;;;8.66;100.00
6853;BME280;3465;42.144;24.722;2023-03-03T14:13:08;145087.03;;;8.67;100.00
6853;BME280;3465;42.144;24.722;2023-03-03T14:15:54;145113.31;;;8.78;100.00
6853;BME280;3465;42.144;24.722;2023-03-03T14:21:23;145182.06;;;9.06;100.00
6853;BME280;3465;42.144;24.722;2023-03-03T14:26:28;145193.34;;;9.10;100.00
6853;BME280;3465;42.144;24.722;2023-03-03T14:29:12;145180.84;;;9.05;100.00
6853;BME280;3465;42.144;24.722;2023-03-03T14:31:41;145163.31;;;8.98;100.00
6853;BME280;3465;42.144;24.722;2023-03-03T14:36:39;145148.31;;;8.92;100.00
6853;BME280;3465;42.144;24.722;2023-03-03T14:41:56;145115.78;;;8.79;100.00
6853;BME280;3465;42.144;24.722;2023-03-03T14:44:34;145130.78;;;8.85;100.00
6853;BME280;3465;42.144;24.722;2023-03-03T14:49:36;145129.56;;;8.85;100.00
6853;BME280;3465;42.144;24.722;2023-03-03T14:54:48;145115.78;;;8.79;100.00
6853;BME280;3465;42.144;24.722;2023-03-03T14:57:36;145110.78;;;8.77;100.00
6853;BME280;3465;42.144;24.722;2023-03-03T15:02:43;145118.28;;;8.80;100.00
6853;BME280;3465;42.144;24.722;2023-03-03T15:05:23;145109.56;;;8.77;100.00
6853;BME280;3465;42.144;24.722;2023-03-03T15:07:52;145117.06;;;8.80;100.00
6853;BME280;3465;42.144;24.722;2023-03-03T15:10:39;145085.81;;;8.67;100.00
6853;BME280;3465;42.144;24.722;2023-03-03T15:16:21;145059.53;;;8.56;100.00
6853;BME280;3465;42.144;24.722;2023-03-03T15:21:22;145037.06;;;8.47;100.00
6853;BME280;3465;42.144;24.722;2023-03-03T15:26:42;145063.28;;;8.58;100.00
6853;BME280;3465;42.144;24.722;2023-03-03T15:34:49;145040.81;;;8.49;100.00
6853;BME280;3465;42.144;24.722;2023-03-03T15:40:38;145025.81;;;8.43;100.00
6853;BME280;3465;42.144;24.722;2023-03-03T15:56:55;144982.03;;;8.25;100.00
6853;BME280;3465;42.144;24.722;2023-03-03T16:02:19;144950.75;;;8.13;100.00
6853;BME280;3465;42.144;24.722;2023-03-03T16:04:55;144934.50;;;8.06;100.00
6853;BME280;3465;42.144;24.722;2023-03-03T16:07:45;144924.53;;;8.02;100.00
6853;BME280;3465;42.144;24.722;2023-03-03T16:13:22;144889.56;;;7.88;100.00
6853;BME280;3465;42.144;24.722;2023-03-03T16:23:59;144912.03;;;7.97;100.00
6853;BME280;3465;42.144;24.722;2023-03-03T16:32:33;144879.53;;;7.84;100.00
6853;BME280;3465;42.144;24.722;2023-03-03T16:46:21;144835.81;;;7.67;100.00
6853;BME280;3465;42.144;24.722;2023-03-03T16:52:12;144814.56;;;7.58;100.00
6853;BME280;3465;42.144;24.722;2023-03-03T16:55:47;144824.59;;;7.62;100.00
6853;BME280;3465;42.144;24.722;2023-03-03T17:06:16;144773.41;;;7.42;100.00
6853;BME280;3465;42.144;24.722;2023-03-03T17:16:59;144764.66;;;7.38;100.00
6853;BME280;3465;42.144;24.722;2023-03-03T17:22:58;144775.88;;;7.43;100.00
6853;BME280;3465;42.144;24.722;2023-03-03T17:25:39;144768.38;;;7.40;100.00
6853;BME280;3465;42.144;24.722;2023-03-03T17:45:19;144777.13;;;7.43;100.00
6853;BME280;3465;42.144;24.722;2023-03-03T18:09:19;144628.56;;;6.83;100.00
6853;BME280;3465;42.144;24.722;2023-03-03T18:15:37;144598.59;;;6.71;100.00
6853;BME280;3465;42.144;24.722;2023-03-03T18:23:31;144571.16;;;6.60;100.00
6853;BME280;3465;42.144;24.722;2023-03-03T18:26:27;144568.66;;;6.59;100.00
6853;BME280;3465;42.144;24.722;2023-03-03T18:28:50;144566.19;;;6.58;100.00
6853;BME280;3465;42.144;24.722;2023-03-03T18:34:08;144567.41;;;6.59;100.00
6853;BME280;3465;42.144;24.722;2023-03-03T18:36:57;144558.66;;;6.55;100.00
6853;BME280;3465;42.144;24.722;2023-03-03T18:39:48;144554.91;;;6.54;100.00
6853;BME280;3465;42.144;24.722;2023-03-03T18:44:40;144536.22;;;6.46;100.00
6853;BME280;3465;42.144;24.722;2023-03-03T18:47:06;144528.75;;;6.43;100.00